Time;durP1;ratioP1;P1;durP2;ratioP2;P2;SDS_P1;SDS_P2;PMS_P1;PMS_P2;Temp;Humidity;BMP_temperature;BMP_pressure;BME280_temperature;BME280_humidity;BME280_pressure;Samples;Min_cycle;Max_cycle;Signal;HPM_P1;HPM_P2
2024/03/01 00:02:25;;;;;;;;;;;;;;;11.64;60.26;99781.94;5031294;28;19928;-81
2024/03/01 00:04:50;;;;;;;;;;;;;;;11.62;61.19;99790.03;5031359;28;19920;-82
2024/03/01 00:07:15;;;;;;;;;;;;;;;11.60;61.19;99789.41;5031229;28;19966;-82
2024/03/01 00:09:40;;;;;;;;;;;;;;;11.57;62.02;99786.28;5032427;28;19917;-82
2024/03/01 00:12:06;;;;;;;;;;;;;;;11.53;60.55;99772.59;5032546;28;19913;-82
2024/03/01 00:14:32;;;;;;;;;;;;;;;11.50;61.11;99754.44;5031079;28;20008;-82
2024/03/01 00:16:57;;;;;;;;;;;;;;;11.50;62.26;99756.28;5032595;28;19913;-82
2024/03/01 00:19:22;;;;;;;;;;;;;;;11.46;62.26;99742.59;5031292;28;19920;-82
2024/03/01 00:21:48;;;;;;;;;;;;;;;11.42;62.32;99742.13;5032358;28;19967;-82
2024/03/01 00:24:13;;;;;;;;;;;;;;;11.38;61.57;99748.75;5032494;28;19959;-82
2024/03/01 00:26:43;;;;;;;;;;;;;;;11.33;62.41;99763.50;5032684;28;20423;-81
2024/03/01 00:29:08;;;;;;;;;;;;;;;11.31;62.96;99763.69;5034315;28;19918;-81
2024/03/01 00:31:33;;;;;;;;;;;;;;;11.31;63.80;99741.72;5034045;28;19913;-81
2024/03/01 00:33:59;;;;;;;;;;;;;;;11.32;62.66;99724.88;5031213;28;20020;-82
2024/03/01 00:36:24;;;;;;;;;;;;;;;11.31;62.61;99708.19;5032026;28;20386;-81
2024/03/01 00:38:49;;;;;;;;;;;;;;;11.29;62.61;99733.97;5030624;28;19913;-82
2024/03/01 00:41:15;;;;;;;;;;;;;;;11.19;63.19;99767.75;5032053;28;20378;-81
2024/03/01 00:43:40;;;;;;;;;;;;;;;11.09;63.82;99781.16;5032041;28;19914;-82
2024/03/01 00:46:05;;;;;;;;;;;;;;;11.12;62.90;99757.03;5031943;28;19913;-82
2024/03/01 00:48:32;;;;;;;;;;;;;;;11.14;62.76;99760.31;5031799;28;20302;-81
2024/03/01 00:50:57;;;;;;;;;;;;;;;11.18;62.81;99747.59;5031874;28;19913;-81
2024/03/01 00:53:22;;;;;;;;;;;;;;;11.20;62.34;99735.03;5031708;28;19920;-81
2024/03/01 00:55:48;;;;;;;;;;;;;;;11.20;63.17;99728.94;5031736;28;19920;-82
2024/03/01 00:58:13;;;;;;;;;;;;;;;11.20;62.27;99724.47;5031642;28;20380;-81
2024/03/01 01:00:38;;;;;;;;;;;;;;;11.20;62.65;99721.00;5031270;28;20283;-81
2024/03/01 01:03:03;;;;;;;;;;;;;;;11.18;63.17;99718.53;5031390;28;19925;-81
2024/03/01 01:05:29;;;;;;;;;;;;;;;11.20;62.13;99721.00;5031666;28;19917;-81
2024/03/01 01:07:54;;;;;;;;;;;;;;;11.13;62.56;99713.75;5031524;28;19919;-81
2024/03/01 01:10:20;;;;;;;;;;;;;;;11.13;62.13;99711.09;5031798;28;19956;-81
2024/03/01 01:12:45;;;;;;;;;;;;;;;11.08;63.54;99707.34;5030216;28;20371;-82
2024/03/01 01:15:11;;;;;;;;;;;;;;;11.04;63.32;99701.59;5031549;28;19913;-82
2024/03/01 01:17:36;;;;;;;;;;;;;;;11.07;62.42;99697.78;5031477;28;19913;-82
2024/03/01 01:20:03;;;;;;;;;;;;;;;11.05;63.19;99692.69;5031618;28;19913;-82
2024/03/01 01:22:28;;;;;;;;;;;;;;;11.00;64.35;99688.94;5031295;28;19917;-82
2024/03/01 01:24:53;;;;;;;;;;;;;;;11.00;62.70;99686.28;5031303;28;19920;-81
2024/03/01 01:27:19;;;;;;;;;;;;;;;10.87;64.33;99688.69;5031328;28;19945;-82
2024/03/01 01:29:44;;;;;;;;;;;;;;;10.83;63.77;99690.88;5031136;28;20370;-83
2024/03/01 01:32:10;;;;;;;;;;;;;;;10.80;64.67;99686.75;5030078;28;19979;-82
2024/03/01 01:34:35;;;;;;;;;;;;;;;10.81;64.06;99691.03;5031445;28;19981;-81
2024/03/01 01:37:00;;;;;;;;;;;;;;;10.81;64.25;99688.41;5030067;28;19920;-82
2024/03/01 01:39:26;;;;;;;;;;;;;;;10.82;64.12;99699.78;5031414;28;19913;-82
2024/03/01 01:41:51;;;;;;;;;;;;;;;10.81;64.69;99704.25;5031413;28;19921;-81
2024/03/01 01:44:16;;;;;;;;;;;;;;;10.81;65.08;99687.56;5031475;28;19918;-81
2024/03/01 01:46:42;;;;;;;;;;;;;;;10.86;64.23;99690.50;5031237;28;19913;-81
2024/03/01 01:49:08;;;;;;;;;;;;;;;10.82;65.71;99676.00;5030929;28;19917;-81
2024/03/01 01:51:34;;;;;;;;;;;;;;;10.86;63.67;99671.19;5031004;28;20374;-82
2024/03/01 01:53:59;;;;;;;;;;;;;;;10.91;62.88;99655.66;5029803;28;20021;-81
2024/03/01 01:56:25;;;;;;;;;;;;;;;10.86;63.66;99655.34;5031035;28;20437;-81
2024/03/01 01:58:51;;;;;;;;;;;;;;;10.87;62.24;99627.94;5031136;28;19913;-82
2024/03/01 02:01:17;;;;;;;;;;;;;;;10.89;63.44;99628.59;5031096;28;19913;-83
2024/03/01 02:03:42;;;;;;;;;;;;;;;10.78;63.62;99650.97;5030987;28;20501;-82
2024/03/01 02:06:08;;;;;;;;;;;;;;;10.65;64.67;99656.00;5031088;28;20008;-82
2024/03/01 02:08:35;;;;;;;;;;;;;;;10.65;64.43;99648.09;5031111;28;19917;-82
2024/03/01 02:11:01;;;;;;;;;;;;;;;10.66;64.54;99660.28;5031006;28;20316;-82
2024/03/01 02:13:26;;;;;;;;;;;;;;;10.70;64.70;99670.31;5031913;28;19999;-82
2024/03/01 02:15:52;;;;;;;;;;;;;;;10.75;64.50;99673.25;5034645;28;19948;-82
2024/03/01 02:18:17;;;;;;;;;;;;;;;10.75;65.45;99685.66;5033522;28;19917;-82
2024/03/01 02:20:47;;;;;;;;;;;;;;;10.77;64.50;99678.38;5033441;28;20380;-82
2024/03/01 02:23:20;;;;;;;;;;;;;;;10.79;64.25;99668.44;5034441;28;19920;-82
2024/03/01 02:25:45;;;;;;;;;;;;;;;10.81;65.14;99680.47;5034579;28;19913;-81
2024/03/01 02:28:10;;;;;;;;;;;;;;;10.83;64.79;99667.91;5034220;28;19924;-81
2024/03/01 02:30:35;;;;;;;;;;;;;;;10.88;64.50;99656.00;5034377;28;19917;-82
2024/03/01 02:33:01;;;;;;;;;;;;;;;10.87;64.79;99667.56;5033088;28;19913;-82
2024/03/01 02:35:26;;;;;;;;;;;;;;;10.86;64.58;99668.56;5034282;28;19947;-82
2024/03/01 02:37:51;;;;;;;;;;;;;;;10.87;63.59;99659.63;5034354;28;20439;-82
2024/03/01 02:40:17;;;;;;;;;;;;;;;10.84;64.40;99658.16;5033020;28;19932;-81
2024/03/01 02:42:42;;;;;;;;;;;;;;;10.80;64.37;99660.34;5034450;28;20448;-82
2024/03/01 02:45:07;;;;;;;;;;;;;;;10.77;64.37;99649.31;5034181;28;19913;-82
2024/03/01 02:47:32;;;;;;;;;;;;;;;10.77;63.92;99642.22;5032627;28;19936;-82
2024/03/01 02:49:58;;;;;;;;;;;;;;;10.81;65.28;99637.41;5033799;28;19917;-82
2024/03/01 02:52:23;;;;;;;;;;;;;;;10.81;64.63;99630.28;5034040;28;19913;-81
2024/03/01 02:54:48;;;;;;;;;;;;;;;10.75;64.62;99632.81;5034268;28;20055;-83
2024/03/01 02:57:14;;;;;;;;;;;;;;;10.78;62.93;99619.25;5032509;28;19916;-82
2024/03/01 02:59:39;;;;;;;;;;;;;;;10.77;65.06;99613.16;5033756;28;19913;-82
2024/03/01 03:02:04;;;;;;;;;;;;;;;10.75;65.08;99628.38;5033894;28;19956;-81
2024/03/01 03:04:30;;;;;;;;;;;;;;;10.70;64.70;99638.63;5033803;28;19913;-82
2024/03/01 03:06:56;;;;;;;;;;;;;;;10.66;65.53;99634.69;5033739;28;19913;-82
2024/03/01 03:09:21;;;;;;;;;;;;;;;10.60;65.60;99629.31;5033565;28;19917;-82
2024/03/01 03:11:47;;;;;;;;;;;;;;;10.72;62.92;99623.44;5033611;28;19913;-81
2024/03/01 03:14:12;;;;;;;;;;;;;;;10.61;64.76;99618.56;5033573;28;19913;-82
2024/03/01 03:16:38;;;;;;;;;;;;;;;10.57;64.16;99604.09;5033993;28;19913;-82
2024/03/01 03:19:03;;;;;;;;;;;;;;;10.61;65.00;99605.38;5032368;28;19914;-82
2024/03/01 03:21:28;;;;;;;;;;;;;;;10.63;63.32;99610.47;5033510;28;19914;-83
2024/03/01 03:23:53;;;;;;;;;;;;;;;10.54;64.99;99615.00;5032986;28;20343;-82
2024/03/01 03:26:19;;;;;;;;;;;;;;;10.55;64.74;99611.34;5033391;28;19917;-81
2024/03/01 03:28:44;;;;;;;;;;;;;;;10.51;64.18;99615.34;5033270;28;20004;-82
2024/03/01 03:31:10;;;;;;;;;;;;;;;10.45;65.21;99616.88;5033530;28;19940;-82
2024/03/01 03:33:35;;;;;;;;;;;;;;;10.39;65.53;99616.72;5032091;28;19951;-82
2024/03/01 03:36:00;;;;;;;;;;;;;;;10.41;65.71;99614.75;5033372;28;19913;-82
2024/03/01 03:38:26;;;;;;;;;;;;;;;10.42;65.64;99619.03;5033333;28;19913;-82
2024/03/01 03:40:51;;;;;;;;;;;;;;;10.45;65.66;99622.16;5031815;28;20415;-81
2024/03/01 03:43:16;;;;;;;;;;;;;;;10.49;64.13;99614.69;5031743;28;19917;-81
2024/03/01 03:45:41;;;;;;;;;;;;;;;10.43;66.69;99610.13;5032884;28;19984;-82
2024/03/01 03:48:07;;;;;;;;;;;;;;;10.41;66.85;99599.75;5031464;28;20390;-81
2024/03/01 03:50:32;;;;;;;;;;;;;;;10.44;66.53;99604.66;5031397;28;19913;-82
2024/03/01 03:52:57;;;;;;;;;;;;;;;10.49;65.07;99606.78;5032867;28;19960;-82
2024/03/01 03:55:23;;;;;;;;;;;;;;;10.50;65.47;99608.41;5032695;28;20020;-81
2024/03/01 03:57:48;;;;;;;;;;;;;;;10.54;65.32;99601.78;5032685;28;19913;-82
2024/03/01 04:00:16;;;;;;;;;;;;;;;10.55;65.59;99602.63;5031557;28;19955;-82
2024/03/01 04:02:43;;;;;;;;;;;;;;;10.60;64.54;99608.19;5031360;28;19928;-81
2024/03/01 04:05:08;;;;;;;;;;;;;;;10.55;65.33;99600.78;5032738;28;19920;-82
2024/03/01 04:07:33;;;;;;;;;;;;;;;10.57;65.52;99606.72;5032751;28;20313;-81
2024/03/01 04:09:58;;;;;;;;;;;;;;;10.58;65.54;99592.53;5031294;28;20311;-82
2024/03/01 04:12:24;;;;;;;;;;;;;;;10.55;64.84;99574.41;5032559;28;19913;-82
2024/03/01 04:14:49;;;;;;;;;;;;;;;10.53;65.99;99580.84;5032604;28;19924;-82
2024/03/01 04:17:14;;;;;;;;;;;;;;;10.50;66.35;99574.09;5031186;28;20062;-81
2024/03/01 04:19:40;;;;;;;;;;;;;;;10.50;65.44;99574.94;5032405;28;19924;-82
2024/03/01 04:22:05;;;;;;;;;;;;;;;10.51;64.88;99581.03;5032736;28;19957;-82
2024/03/01 04:24:31;;;;;;;;;;;;;;;10.42;65.05;99580.25;5030832;28;19919;-81
2024/03/01 04:26:56;;;;;;;;;;;;;;;10.46;64.56;99583.38;5030951;28;19913;-82
2024/03/01 04:29:21;;;;;;;;;;;;;;;10.49;64.72;99585.66;5030889;28;19924;-81
2024/03/01 04:31:48;;;;;;;;;;;;;;;10.46;64.87;99573.63;5030870;28;19936;-82
2024/03/01 04:34:18;;;;;;;;;;;;;;;10.46;65.49;99580.72;5030788;28;20016;-82
2024/03/01 04:36:43;;;;;;;;;;;;;;;10.43;64.39;99571.34;5031330;28;20039;-82
2024/03/01 04:39:09;;;;;;;;;;;;;;;10.42;64.94;99574.16;5032217;28;19998;-82
2024/03/01 04:41:34;;;;;;;;;;;;;;;10.39;65.28;99585.88;5031720;28;19967;-81
2024/03/01 04:44:00;;;;;;;;;;;;;;;10.37;66.19;99584.41;5031732;28;19967;-83
2024/03/01 04:46:25;;;;;;;;;;;;;;;10.36;65.45;99591.50;5031841;28;20314;-82
2024/03/01 04:48:50;;;;;;;;;;;;;;;10.36;66.12;99580.94;5031796;28;19924;-83
2024/03/01 04:51:16;;;;;;;;;;;;;;;10.37;65.79;99581.75;5031832;28;19952;-82
2024/03/01 04:53:41;;;;;;;;;;;;;;;10.33;66.50;99586.56;5031810;28;19968;-81
2024/03/01 04:56:07;;;;;;;;;;;;;;;10.37;65.65;99581.75;5031713;28;19917;-81
2024/03/01 04:58:32;;;;;;;;;;;;;;;10.41;65.29;99575.16;5030571;28;20361;-82
2024/03/01 05:01:00;;;;;;;;;;;;;;;10.39;65.24;99577.94;5031693;28;19920;-82
2024/03/01 05:03:28;;;;;;;;;;;;;;;10.40;65.71;99573.50;5031798;28;20071;-82
2024/03/01 05:05:53;;;;;;;;;;;;;;;10.47;65.46;99574.47;5030442;28;19920;-82
2024/03/01 05:08:19;;;;;;;;;;;;;;;10.49;65.54;99570.63;5031510;28;19921;-81
2024/03/01 05:10:49;;;;;;;;;;;;;;;10.56;65.26;99569.94;5031461;28;19912;-82
2024/03/01 05:13:15;;;;;;;;;;;;;;;10.55;66.00;99569.13;5030429;28;19921;-82
2024/03/01 05:15:40;;;;;;;;;;;;;;;10.57;65.91;99553.91;5031630;28;19913;-82
2024/03/01 05:18:06;;;;;;;;;;;;;;;10.58;65.30;99552.91;5031770;28;20317;-83
2024/03/01 05:20:31;;;;;;;;;;;;;;;10.56;65.42;99564.66;5031949;28;19924;-82
2024/03/01 05:22:57;;;;;;;;;;;;;;;10.53;65.85;99580.84;5030247;28;19913;-82
2024/03/01 05:25:22;;;;;;;;;;;;;;;10.53;65.11;99586.94;5031661;28;19968;-81
2024/03/01 05:27:48;;;;;;;;;;;;;;;10.44;65.52;99599.38;5031728;28;19912;-81
2024/03/01 05:30:16;;;;;;;;;;;;;;;10.46;65.16;99602.66;5029994;28;19918;-82
2024/03/01 05:32:42;;;;;;;;;;;;;;;10.44;65.66;99596.75;5031511;28;19917;-82
2024/03/01 05:35:08;;;;;;;;;;;;;;;10.45;65.26;99593.09;5031383;28;19913;-82
2024/03/01 05:37:33;;;;;;;;;;;;;;;10.48;65.10;99581.38;5030260;28;19913;-82
2024/03/01 05:39:59;;;;;;;;;;;;;;;10.47;64.81;99580.56;5030165;28;19921;-82
2024/03/01 05:42:25;;;;;;;;;;;;;;;10.46;65.57;99578.91;5031360;28;20460;-82
2024/03/01 05:44:50;;;;;;;;;;;;;;;10.50;65.54;99584.66;5031262;28;19917;-82
2024/03/01 05:47:15;;;;;;;;;;;;;;;10.46;66.05;99576.28;5030840;28;20306;-82
2024/03/01 05:49:41;;;;;;;;;;;;;;;10.42;66.00;99582.09;5033790;28;20022;-82
2024/03/01 05:52:06;;;;;;;;;;;;;;;10.43;66.00;99581.09;5035322;28;19964;-83
2024/03/01 05:54:32;;;;;;;;;;;;;;;10.41;65.40;99586.53;5035297;28;19921;-82
2024/03/01 05:56:57;;;;;;;;;;;;;;;10.42;65.63;99575.00;5033830;28;19913;-82
2024/03/01 05:59:22;;;;;;;;;;;;;;;10.43;66.20;99578.44;5034902;28;19919;-82
2024/03/01 06:01:48;;;;;;;;;;;;;;;10.44;65.17;99577.44;5034696;28;19921;-82
2024/03/01 06:04:13;;;;;;;;;;;;;;;10.46;66.00;99593.94;5033322;28;19920;-83
2024/03/01 06:06:38;;;;;;;;;;;;;;;10.48;65.83;99584.84;5034760;28;19914;-82
2024/03/01 06:09:04;;;;;;;;;;;;;;;10.44;66.10;99588.00;5034721;28;19967;-82
2024/03/01 06:11:30;;;;;;;;;;;;;;;10.41;66.40;99597.09;5034734;28;19913;-83
2024/03/01 06:13:55;;;;;;;;;;;;;;;10.46;66.22;99605.31;5034850;28;19971;-82
2024/03/01 06:16:20;;;;;;;;;;;;;;;10.50;65.04;99592.59;5034880;28;19917;-82
2024/03/01 06:18:45;;;;;;;;;;;;;;;10.54;65.28;99604.44;5033460;28;19913;-83
2024/03/01 06:21:18;;;;;;;;;;;;;;;10.57;64.94;99606.72;5034974;28;20306;-82
2024/03/01 06:23:44;;;;;;;;;;;;;;;10.58;65.12;99599.63;5034701;28;20379;-82
2024/03/01 06:26:09;;;;;;;;;;;;;;;10.61;65.08;99602.72;5034648;28;19917;-82
2024/03/01 06:28:34;;;;;;;;;;;;;;;10.67;64.20;99611.75;5035904;28;19959;-82
2024/03/01 06:30:59;;;;;;;;;;;;;;;10.66;64.77;99629.41;5038573;28;19924;-82
2024/03/01 06:33:24;;;;;;;;;;;;;;;10.68;64.03;99643.28;5055207;28;19913;-83
2024/03/01 06:35:50;;;;;;;;;;;;;;;10.62;64.86;99638.69;5054059;28;19913;-82
2024/03/01 06:38:15;;;;;;;;;;;;;;;10.61;64.80;99630.94;5036386;28;20013;-83
2024/03/01 06:40:40;;;;;;;;;;;;;;;10.58;64.36;99618.09;5034252;28;19957;-82
2024/03/01 06:43:06;;;;;;;;;;;;;;;10.55;64.67;99621.09;5034140;28;20275;-82
2024/03/01 06:45:32;;;;;;;;;;;;;;;10.51;64.92;99620.63;5035417;28;20019;-82
2024/03/01 06:47:57;;;;;;;;;;;;;;;10.43;65.40;99618.03;5052273;28;19917;-83
2024/03/01 06:50:23;;;;;;;;;;;;;;;10.46;65.59;99618.50;5052617;28;19912;-83
2024/03/01 06:52:48;;;;;;;;;;;;;;;10.51;64.73;99628.53;5053986;28;19913;-83
2024/03/01 06:55:13;;;;;;;;;;;;;;;10.52;65.25;99621.44;5053589;28;19917;-83
2024/03/01 06:57:39;;;;;;;;;;;;;;;10.55;65.15;99605.25;5050926;28;21544;-83
2024/03/01 07:00:07;;;;;;;;;;;;;;;10.51;65.96;99607.41;5051596;28;20007;-82
2024/03/01 07:02:33;;;;;;;;;;;;;;;10.52;64.75;99597.69;5034066;28;19928;-82
2024/03/01 07:04:58;;;;;;;;;;;;;;;10.53;65.34;99591.41;5032857;28;20322;-83
2024/03/01 07:07:23;;;;;;;;;;;;;;;10.56;64.61;99591.88;5032450;28;20390;-83
2024/03/01 07:09:50;;;;;;;;;;;;;;;10.55;64.92;99592.06;5032121;28;19917;-82
2024/03/01 07:12:15;;;;;;;;;;;;;;;10.55;65.52;99603.44;5032274;28;19951;-82
2024/03/01 07:14:42;;;;;;;;;;;;;;;10.58;64.70;99613.66;5032254;28;20382;-83
2024/03/01 07:17:07;;;;;;;;;;;;;;;10.63;64.71;99595.44;5032294;28;19919;-83
2024/03/01 07:19:32;;;;;;;;;;;;;;;10.72;63.50;99602.31;5032116;28;20004;-82
2024/03/01 07:21:57;;;;;;;;;;;;;;;10.69;64.20;99607.94;5045773;28;19917;-83
2024/03/01 07:24:23;;;;;;;;;;;;;;;10.66;63.32;99612.75;5047321;28;20213;-82
2024/03/01 07:26:48;;;;;;;;;;;;;;;10.57;64.21;99609.34;5033252;28;19913;-81
2024/03/01 07:29:13;;;;;;;;;;;;;;;10.55;63.61;99607.91;5033045;28;19918;-82
2024/03/01 07:31:39;;;;;;;;;;;;;;;10.52;64.21;99600.31;5036192;28;20394;-82
2024/03/01 07:34:04;;;;;;;;;;;;;;;10.50;64.33;99611.88;5048593;28;20007;-82
2024/03/01 07:36:29;;;;;;;;;;;;;;;10.51;63.52;99596.88;5033049;28;20378;-82
2024/03/01 07:38:54;;;;;;;;;;;;;;;10.47;64.67;99606.94;5049085;28;19920;-82
2024/03/01 07:41:21;;;;;;;;;;;;;;;10.46;64.15;99612.41;5051628;28;19924;-82
2024/03/01 07:43:49;;;;;;;;;;;;;;;10.46;65.00;99615.06;5052759;28;19913;-81
2024/03/01 07:46:16;;;;;;;;;;;;;;;10.49;64.64;99604.13;5047107;28;19921;-82
2024/03/01 07:48:45;;;;;;;;;;;;;;;10.52;64.64;99587.94;5031693;28;19917;-81
2024/03/01 07:51:10;;;;;;;;;;;;;;;10.54;64.28;99585.94;5043772;28;19987;-82
2024/03/01 07:53:36;;;;;;;;;;;;;;;10.52;64.99;99585.31;5032726;28;20543;-82
2024/03/01 07:56:01;;;;;;;;;;;;;;;10.54;64.19;99587.78;5036326;28;19924;-83
2024/03/01 07:58:27;;;;;;;;;;;;;;;10.56;65.57;99601.63;5031325;28;19947;-82
2024/03/01 08:00:52;;;;;;;;;;;;;;;10.61;64.48;99600.09;5032503;28;19913;-82
2024/03/01 08:03:17;;;;;;;;;;;;;;;10.65;64.51;99605.84;5033407;28;20322;-82
2024/03/01 08:05:43;;;;;;;;;;;;;;;10.72;62.74;99604.94;5043506;28;19923;-82
2024/03/01 08:08:09;;;;;;;;;;;;;;;10.65;63.25;99608.47;5032514;28;20339;-82
2024/03/01 08:10:36;;;;;;;;;;;;;;;10.58;63.79;99599.63;5030358;28;19924;-82
2024/03/01 08:13:02;;;;;;;;;;;;;;;10.60;63.27;99589.69;5051939;28;19974;-83
2024/03/01 08:15:29;;;;;;;;;;;;;;;10.59;62.75;99591.53;5051121;28;19952;-83
2024/03/01 08:17:55;;;;;;;;;;;;;;;10.55;64.59;99590.22;5047007;28;19919;-82
2024/03/01 08:20:30;;;;;;;;;;;;;;;10.60;62.99;99595.81;5047669;28;19917;-83
2024/03/01 08:22:55;;;;;;;;;;;;;;;10.57;63.10;99584.78;5035634;28;20017;-81
2024/03/01 08:25:20;;;;;;;;;;;;;;;10.57;63.17;99582.13;5048081;28;19995;-82
2024/03/01 08:27:46;;;;;;;;;;;;;;;10.58;63.49;99576.69;5048064;28;19913;-82
2024/03/01 08:30:33;;;;;;;;;;;;;;;10.49;64.29;99565.38;5032053;28;20410;-82
2024/03/01 08:32:59;;;;;;;;;;;;;;;10.48;64.21;99558.44;5030827;28;20364;-82
2024/03/01 08:35:24;;;;;;;;;;;;;;;10.55;63.40;99579.66;5031881;28;19913;-82
2024/03/01 08:37:49;;;;;;;;;;;;;;;10.59;63.55;99596.81;5030783;28;19917;-83
2024/03/01 08:40:34;;;;;;;;;;;;;;;10.55;64.02;99592.88;5038359;28;19935;-82
2024/03/01 08:43:01;;;;;;;;;;;;;;;10.65;64.05;99593.47;5051674;28;19912;-82
2024/03/01 08:45:41;;;;;;;;;;;;;;;10.70;64.31;99585.00;5050554;28;19913;-82
2024/03/01 08:48:12;;;;;;;;;;;;;;;10.77;64.49;99604.41;5051735;28;19919;-82
2024/03/01 08:50:41;;;;;;;;;;;;;;;10.84;64.61;99589.50;5051875;28;19920;-82
2024/03/01 08:53:25;;;;;;;;;;;;;;;10.90;63.93;99591.44;5051654;28;19956;-82
2024/03/01 08:55:50;;;;;;;;;;;;;;;10.95;64.35;99604.09;5035685;28;19959;-82
2024/03/01 08:58:18;;;;;;;;;;;;;;;11.00;63.75;99601.75;5046648;28;19917;-82
2024/03/01 09:00:46;;;;;;;;;;;;;;;11.03;63.29;99596.91;5045048;28;19960;-81
2024/03/01 09:03:14;;;;;;;;;;;;;;;11.13;62.84;99592.19;5036165;28;20004;-81
2024/03/01 09:05:40;;;;;;;;;;;;;;;11.19;62.63;99606.53;5030519;28;19913;-81
2024/03/01 09:08:12;;;;;;;;;;;;;;;11.18;62.92;99589.03;5043276;28;19958;-82
2024/03/01 09:10:37;;;;;;;;;;;;;;;11.24;63.13;99585.69;5035101;28;19917;-82
2024/03/01 09:13:04;;;;;;;;;;;;;;;11.34;61.97;99595.97;5042816;28;19938;-82
2024/03/01 09:15:34;;;;;;;;;;;;;;;11.34;63.07;99591.50;5032911;28;20309;-82
2024/03/01 09:18:00;;;;;;;;;;;;;;;11.42;61.66;99594.06;5031374;28;19913;-82
2024/03/01 09:20:28;;;;;;;;;;;;;;;11.45;62.63;99588.41;5034274;28;19947;-82
2024/03/01 09:22:53;;;;;;;;;;;;;;;11.44;63.08;99555.03;5046172;28;19925;-82
2024/03/01 09:25:37;;;;;;;;;;;;;;;11.45;63.45;99554.03;5040970;28;20891;-81
2024/03/01 09:28:02;;;;;;;;;;;;;;;11.48;62.79;99555.50;5043524;28;19916;-82
2024/03/01 09:30:28;;;;;;;;;;;;;;;11.49;62.41;99570.38;5034947;28;20374;-81
2024/03/01 09:32:53;;;;;;;;;;;;;;;11.50;62.02;99566.72;5035051;28;19920;-82
2024/03/01 09:35:19;;;;;;;;;;;;;;;11.49;62.41;99575.66;5044003;28;19950;-82
2024/03/01 09:37:44;;;;;;;;;;;;;;;11.49;63.35;99586.22;5033159;28;19917;-81
2024/03/01 09:40:33;;;;;;;;;;;;;;;11.56;62.55;99588.97;5042569;28;19927;-81
2024/03/01 09:43:18;;;;;;;;;;;;;;;11.55;61.69;99585.50;5028274;28;19940;-81
2024/03/01 09:46:13;;;;;;;;;;;;;;;11.53;61.91;99570.81;5034136;28;19939;-81
2024/03/01 09:48:39;;;;;;;;;;;;;;;11.51;62.49;99560.44;5025834;28;20298;-81
2024/03/01 09:51:23;;;;;;;;;;;;;;;11.48;62.75;99550.22;5041017;28;19919;-80
2024/03/01 09:54:09;;;;;;;;;;;;;;;11.52;62.29;99548.03;5053570;28;19982;-80
2024/03/01 09:56:43;;;;;;;;;;;;;;;11.51;62.37;99559.59;5051352;28;19958;-81
2024/03/01 09:59:08;;;;;;;;;;;;;;;11.53;61.62;99578.75;5043974;28;19916;-81
2024/03/01 10:01:38;;;;;;;;;;;;;;;11.46;62.72;99581.31;5048889;28;19917;-81
2024/03/01 10:04:22;;;;;;;;;;;;;;;11.42;62.87;99574.75;5033263;28;19913;-82
2024/03/01 10:06:54;;;;;;;;;;;;;;;11.47;62.18;99590.88;5062963;28;19924;-81
2024/03/01 10:09:43;;;;;;;;;;;;;;;11.43;62.88;99571.09;5030750;28;20331;-81
2024/03/01 10:12:11;;;;;;;;;;;;;;;11.51;62.16;99564.91;5040209;28;19925;-81
2024/03/01 10:14:46;;;;;;;;;;;;;;;11.54;61.74;99564.53;5037964;28;19917;-82
2024/03/01 10:17:11;;;;;;;;;;;;;;;11.55;61.94;99555.59;5040319;28;20313;-83
2024/03/01 10:19:39;;;;;;;;;;;;;;;11.54;61.80;99548.66;5050784;28;19913;-85
2024/03/01 10:22:24;;;;;;;;;;;;;;;11.52;62.52;99546.19;5044333;28;20385;-81
2024/03/01 10:24:52;;;;;;;;;;;;;;;11.58;62.50;99555.22;5054074;28;19916;-82
2024/03/01 10:27:20;;;;;;;;;;;;;;;11.65;62.15;99550.84;5049435;28;19920;-82
2024/03/01 10:30:05;;;;;;;;;;;;;;;11.61;62.78;99544.28;5036670;28;19921;-83
2024/03/01 10:32:30;;;;;;;;;;;;;;;11.67;62.47;99554.94;5030918;28;19971;-83
2024/03/01 10:35:04;;;;;;;;;;;;;;;11.73;62.08;99530.38;5040432;28;19917;-83
2024/03/01 10:37:35;;;;;;;;;;;;;;;11.78;61.44;99529.88;5059269;28;19917;-82
2024/03/01 10:40:27;;;;;;;;;;;;;;;11.78;61.89;99524.56;5053591;28;19921;-82
2024/03/01 10:43:04;;;;;;;;;;;;;;;11.84;61.53;99523.00;5072791;28;20432;-82
2024/03/01 10:45:39;;;;;;;;;;;;;;;11.82;62.22;99522.38;5037712;28;19917;-82
2024/03/01 10:48:04;;;;;;;;;;;;;;;11.92;61.57;99526.38;5048387;28;19970;-82
2024/03/01 10:50:32;;;;;;;;;;;;;;;11.90;61.54;99533.69;5050713;28;20727;-82
2024/03/01 10:53:04;;;;;;;;;;;;;;;11.96;61.98;99529.47;5045378;28;20406;-82
2024/03/01 10:55:34;;;;;;;;;;;;;;;12.07;61.51;99529.81;5054844;28;19927;-82
2024/03/01 10:58:04;;;;;;;;;;;;;;;12.14;61.38;99508.69;5054079;28;20003;-82
2024/03/01 11:00:31;;;;;;;;;;;;;;;12.18;61.35;99523.19;5053599;28;19956;-82
2024/03/01 11:03:08;;;;;;;;;;;;;;;12.18;61.04;99511.78;5068036;28;19920;-81
2024/03/01 11:05:38;;;;;;;;;;;;;;;12.20;61.36;99497.34;5059294;28;20403;-82
2024/03/01 11:08:17;;;;;;;;;;;;;;;12.22;61.16;99505.94;5052129;28;19909;-81
2024/03/01 11:10:53;;;;;;;;;;;;;;;12.27;61.15;99492.94;5046574;28;19921;-83
2024/03/01 11:13:20;;;;;;;;;;;;;;;12.31;60.38;99488.91;5056959;28;19924;-82
2024/03/01 11:15:47;;;;;;;;;;;;;;;12.32;60.67;99489.72;5059263;28;19917;-83
2024/03/01 11:18:14;;;;;;;;;;;;;;;12.31;60.96;99488.09;5047234;28;20325;-82
2024/03/01 11:20:44;;;;;;;;;;;;;;;12.30;60.77;99481.97;5054513;28;20025;-82
2024/03/01 11:23:16;;;;;;;;;;;;;;;12.30;60.96;99481.16;5058623;28;20007;-83
2024/03/01 11:25:52;;;;;;;;;;;;;;;12.41;61.02;99462.09;5066441;28;19920;-83
2024/03/01 11:28:20;;;;;;;;;;;;;;;12.48;60.40;99452.38;5036652;28;19917;-82
2024/03/01 11:30:49;;;;;;;;;;;;;;;12.50;60.11;99436.28;5046969;28;19923;-82
2024/03/01 11:33:15;;;;;;;;;;;;;;;12.52;60.39;99432.44;5047418;28;19986;-82
2024/03/01 11:35:45;;;;;;;;;;;;;;;12.60;60.15;99434.94;5042089;28;20364;-82
2024/03/01 11:38:29;;;;;;;;;;;;;;;12.61;60.06;99409.28;5044209;28;20005;-81
2024/03/01 11:41:12;;;;;;;;;;;;;;;12.68;59.80;99404.88;5033163;28;19917;-81
2024/03/01 11:43:40;;;;;;;;;;;;;;;12.79;59.55;99440.59;5035685;28;20366;-81
2024/03/01 11:46:08;;;;;;;;;;;;;;;12.86;59.28;99439.63;5045718;28;19928;-81
2024/03/01 11:48:52;;;;;;;;;;;;;;;12.70;59.22;99435.44;5043060;28;19921;-81
2024/03/01 11:51:29;;;;;;;;;;;;;;;12.65;59.43;99437.84;5042719;28;19917;-81
2024/03/01 11:54:00;;;;;;;;;;;;;;;12.66;59.48;99436.84;5035981;28;20386;-81
2024/03/01 11:56:35;;;;;;;;;;;;;;;12.69;59.53;99415.25;5031360;28;20376;-81
2024/03/01 11:59:16;;;;;;;;;;;;;;;12.82;59.48;99413.72;5039978;28;20321;-82
2024/03/01 12:01:44;;;;;;;;;;;;;;;12.98;59.38;99418.69;5036837;28;19927;-81
2024/03/01 12:04:23;;;;;;;;;;;;;;;13.04;58.98;99400.16;5049663;28;19924;-81
2024/03/01 12:07:08;;;;;;;;;;;;;;;13.09;58.95;99388.97;5046617;28;20371;-81
2024/03/01 12:09:44;;;;;;;;;;;;;;;13.15;58.74;99397.97;5059216;28;20007;-82
2024/03/01 12:12:15;;;;;;;;;;;;;;;13.07;58.25;99382.22;5049948;28;19912;-82
2024/03/01 12:14:44;;;;;;;;;;;;;;;13.14;58.68;99394.50;5051009;28;20019;-81
2024/03/01 12:17:33;;;;;;;;;;;;;;;13.08;58.84;99397.94;5053981;28;20527;-81
2024/03/01 12:20:05;;;;;;;;;;;;;;;13.07;58.57;99414.84;5029374;28;19925;-82
2024/03/01 12:22:43;;;;;;;;;;;;;;;13.04;58.48;99402.81;5031023;28;19913;-82
2024/03/01 12:25:10;;;;;;;;;;;;;;;13.03;58.63;99411.78;5032066;28;19977;-81
2024/03/01 12:27:54;;;;;;;;;;;;;;;13.01;58.44;99405.84;5032245;28;19921;-81
2024/03/01 12:30:30;;;;;;;;;;;;;;;12.95;58.65;99408.47;5040236;28;20024;-81
2024/03/01 12:32:58;;;;;;;;;;;;;;;12.89;58.78;99419.84;5033311;28;19917;-80
2024/03/01 12:35:29;;;;;;;;;;;;;;;12.93;58.53;99427.22;5056953;28;20007;-82
2024/03/01 12:37:55;;;;;;;;;;;;;;;12.87;58.67;99427.19;5071699;28;19999;-82
2024/03/01 12:40:20;;;;;;;;;;;;;;;12.90;58.84;99426.78;5061535;28;19995;-82
2024/03/01 12:42:54;;;;;;;;;;;;;;;12.91;58.72;99409.88;5061051;28;19909;-81
2024/03/01 12:45:31;;;;;;;;;;;;;;;12.85;58.84;99395.59;5053461;28;19920;-82
2024/03/01 12:47:59;;;;;;;;;;;;;;;12.89;58.74;99419.84;5051756;28;19995;-82
2024/03/01 12:50:28;;;;;;;;;;;;;;;12.92;58.76;99420.28;5058399;28;20011;-82
2024/03/01 12:53:12;;;;;;;;;;;;;;;12.93;58.51;99416.63;5047508;28;20402;-81